TimeEST,TemperatureF,Dew PointF,Humidity,Sea Level PressureIn,VisibilityMPH,Wind Direction,Wind SpeedMPH,Gust SpeedMPH,PrecipitationIn,Events,Conditions,WindDirDegrees,DateUTC
12:00 AM,47,42,76,30.25,19,North,23.0,,,,Partly Cloudy,10,2013-07-25 14:00:00
12:00 AM,46.4,42.8,87,30.24,-9999.0,North,23.0,-,N/A,,Clear,10,2013-07-25 14:00:00
12:30 AM,46.4,41.0,81,30.24,-9999.0,North,19.6,-,N/A,,Clear,360,2013-07-25 14:30:00
1:00 AM,46,42,79,30.26,,North,18.4,,,,,0,2013-07-25 15:00:00
1:00 AM,46.4,41.0,81,30.24,-9999.0,North,18.4,-,N/A,,Clear,360,2013-07-25 15:00:00
1:30 AM,46.4,41.0,81,30.24,-9999.0,North,20.7,-,N/A,,Clear,350,2013-07-25 15:30:00
2:00 AM,46.4,41.0,81,30.24,-9999.0,North,20.7,-,N/A,,Clear,350,2013-07-25 16:00:00
2:30 AM,46.4,41.0,81,30.24,-9999.0,North,20.7,-,N/A,,Clear,350,2013-07-25 16:30:00
3:00 AM,46.4,41.0,81,30.21,-9999.0,North,21.9,33.4,N/A,,Clear,360,2013-07-25 17:00:00
3:30 AM,48.2,41.0,76,30.21,-9999.0,North,21.9,-,N/A,,Clear,360,2013-07-25 17:30:00
4:00 AM,48.2,41.0,76,30.21,-9999.0,North,18.4,-,N/A,,Clear,360,2013-07-25 18:00:00
4:30 AM,48.2,41.0,76,30.21,6.2,North,20.7,-,N/A,,Mostly Cloudy,350,2013-07-25 18:30:00
5:00 AM,48.2,41.0,76,30.21,6.2,North,21.9,-,N/A,,Mostly Cloudy,360,2013-07-25 19:00:00
5:30 AM,48.2,41.0,76,30.21,6.2,North,21.9,-,N/A,,Mostly Cloudy,350,2013-07-25 19:30:00
6:00 AM,47,42,76,30.25,19,North,21.9,,,,Partly Cloudy,0,2013-07-25 20:00:00
6:00 AM,48.2,41.0,76,30.21,6.2,North,21.9,-,N/A,,Mostly Cloudy,350,2013-07-25 20:00:00
6:30 AM,48.2,41.0,76,30.24,6.2,North,18.4,-,N/A,,Mostly Cloudy,360,2013-07-25 20:30:00
7:00 AM,47,42,77,30.26,,North,19.6,,,,,350,2013-07-25 21:00:00
7:00 AM,48.2,42.8,82,30.24,6.2,North,19.6,-,N/A,,Mostly Cloudy,350,2013-07-25 21:00:00
7:30 AM,48.2,42.8,82,30.24,6.2,North,19.6,-,N/A,Rain,Light Rain Showers,360,2013-07-25 21:30:00
7:50 AM,46.4,44.6,93,30.24,3.7,North,21.9,-,N/A,Rain,Light Rain Showers,360,2013-07-25 21:50:00
8:00 AM,46.4,44.6,93,30.24,4.3,North,20.7,-,N/A,Rain,Light Rain Showers,360,2013-07-25 22:00:00
8:10 AM,46.4,44.6,93,30.24,6.2,North,19.6,-,N/A,,Mostly Cloudy,360,2013-07-25 22:10:00
8:30 AM,46.4,44.6,93,30.24,6.2,North,21.9,-,N/A,,Mostly Cloudy,360,2013-07-25 22:30:00
9:00 AM,47,44,85,30.28,16,North,20.7,,,,Mostly Cloudy,0,2013-07-25 23:00:00
9:00 AM,48.2,44.6,87,30.27,6.2,North,20.7,-,N/A,,Mostly Cloudy,360,2013-07-25 23:00:00
9:30 AM,48.2,44.6,87,30.27,6.2,North,19.6,-,N/A,,Mostly Cloudy,360,2013-07-25 23:30:00
10:00 AM,49,44,79,30.29,,North,20.7,,,,,0,2013-07-26 00:00:00
10:00 AM,50.0,44.6,82,30.27,6.2,North,20.7,-,N/A,,Mostly Cloudy,360,2013-07-26 00:00:00
10:30 AM,51.8,44.6,76,30.27,6.2,North,21.9,-,N/A,,Mostly Cloudy,360,2013-07-26 00:30:00
11:00 AM,51.8,44.6,76,30.27,6.2,North,18.4,-,N/A,,Mostly Cloudy,360,2013-07-26 01:00:00
11:30 AM,55.4,44.6,67,30.27,6.2,North,15.0,-,N/A,,Mostly Cloudy,360,2013-07-26 01:30:00
12:00 PM,57,44,53,30.29,19,NNW,15.0,,,,Partly Cloudy,330,2013-07-26 02:00:00
12:00 PM,57.2,44.6,63,30.27,6.2,NNW,15.0,-,N/A,,Scattered Clouds,330,2013-07-26 02:00:00
12:30 PM,57.2,44.6,63,30.24,6.2,NNW,16.1,-,N/A,,Scattered Clouds,330,2013-07-26 02:30:00
1:00 PM,58,45,51,30.27,,NNW,18.4,,,,,330,2013-07-26 03:00:00
1:00 PM,57.2,44.6,63,30.24,6.2,NNW,18.4,-,N/A,,Scattered Clouds,330,2013-07-26 03:00:00
1:30 PM,57.2,44.6,63,30.24,6.2,North,17.3,-,N/A,,Scattered Clouds,350,2013-07-26 03:30:00
2:00 PM,57.2,46.4,67,30.24,6.2,North,17.3,-,N/A,,Scattered Clouds,360,2013-07-26 04:00:00
2:30 PM,57.2,44.6,63,30.24,6.2,North,18.4,-,N/A,,Scattered Clouds,360,2013-07-26 04:30:00
3:00 PM,59,45,48,30.27,19,North,13.8,,,,Partly Cloudy,350,2013-07-26 05:00:00
3:00 PM,59.0,44.6,59,30.24,6.2,North,13.8,-,N/A,,Scattered Clouds,350,2013-07-26 05:00:00
3:30 PM,57.2,44.6,63,30.24,6.2,NW,11.5,-,N/A,,Partly Cloudy,310,2013-07-26 05:30:00
4:00 PM,57,44,50,30.27,,North,16.1,,,,,0,2013-07-26 06:00:00
4:00 PM,57.2,42.8,59,30.24,6.2,North,16.1,-,N/A,,Partly Cloudy,360,2013-07-26 06:00:00
4:30 PM,55.4,42.8,63,30.24,6.2,North,15.0,-,N/A,,Partly Cloudy,350,2013-07-26 06:30:00
5:00 PM,53.6,42.8,67,30.27,6.2,North,12.7,-,N/A,,Partly Cloudy,350,2013-07-26 07:00:00
5:30 PM,51.8,44.6,76,30.27,6.2,North,10.4,-,N/A,,Scattered Clouds,10,2013-07-26 07:30:00
6:00 PM,51,44,71,30.29,19,North,15.0,,,,Partly Cloudy,10,2013-07-26 08:00:00
6:00 PM,51.8,44.6,76,30.27,6.2,North,15.0,-,N/A,,Scattered Clouds,10,2013-07-26 08:00:00
6:30 PM,50.0,44.6,82,30.27,6.2,North,16.1,-,N/A,,Partly Cloudy,360,2013-07-26 08:30:00
7:00 PM,50,44,75,30.29,,North,19.6,,,,,0,2013-07-26 09:00:00
7:00 PM,50.0,44.6,82,30.27,-9999.0,North,19.6,-,N/A,,Clear,360,2013-07-26 09:00:00
7:30 PM,50.0,44.6,82,30.27,-9999.0,North,17.3,-,N/A,,Clear,360,2013-07-26 09:30:00
8:00 PM,50.0,44.6,82,30.27,-9999.0,North,18.4,-,N/A,,Clear,360,2013-07-26 10:00:00
8:30 PM,48.2,44.6,87,30.27,-9999.0,North,17.3,-,N/A,,Clear,360,2013-07-26 10:30:00
9:00 PM,50,44,73,30.31,19,North,17.3,,,,Partly Cloudy,0,2013-07-26 11:00:00
9:00 PM,50.0,44.6,82,30.27,-9999.0,North,17.3,-,N/A,,Clear,350,2013-07-26 11:00:00
9:30 PM,50.0,44.6,82,30.30,-9999.0,North,18.4,-,N/A,,Clear,360,2013-07-26 11:30:00
9:54 PM,50.0,42.8,76,30.27,-9999.0,North,19.6,32.2,N/A,,Clear,360,2013-07-26 11:54:00
10:00 PM,50,43,69,30.31,,North,20.7,,,,,0,2013-07-26 12:00:00
10:00 PM,50.0,42.8,76,30.30,-9999.0,North,20.7,33.4,N/A,,Clear,360,2013-07-26 12:00:00
10:30 PM,50.0,42.8,76,30.30,-9999.0,North,19.6,-,N/A,,Clear,350,2013-07-26 12:30:00
11:00 PM,50.0,42.8,76,30.30,-9999.0,North,18.4,-,N/A,,Clear,350,2013-07-26 13:00:00
11:30 PM,50.0,42.8,76,30.30,-9999.0,North,15.0,-,N/A,,Clear,350,2013-07-26 13:30:00